sensor_id;sensor_type;location;lat;lon;timestamp;P1;durP1;ratioP1;P2;durP2;ratioP2
69569;SDS011;56781;42.292;23.146;2022-10-16T00:00:13;11.55;;;4.53;;
69569;SDS011;56781;42.292;23.146;2022-10-16T00:02:57;9.43;;;4.40;;
69569;SDS011;56781;42.292;23.146;2022-10-16T00:05:46;8.80;;;4.00;;
69569;SDS011;56781;42.292;23.146;2022-10-16T00:08:25;8.73;;;4.15;;
69569;SDS011;56781;42.292;23.146;2022-10-16T00:11:06;7.75;;;4.03;;
69569;SDS011;56781;42.292;23.146;2022-10-16T00:14:14;8.93;;;4.13;;
69569;SDS011;56781;42.292;23.146;2022-10-16T00:16:53;9.32;;;4.00;;
69569;SDS011;56781;42.292;23.146;2022-10-16T00:19:44;9.97;;;4.20;;
69569;SDS011;56781;42.292;23.146;2022-10-16T00:22:15;11.02;;;4.53;;
69569;SDS011;56781;42.292;23.146;2022-10-16T00:24:42;9.15;;;4.50;;
69569;SDS011;56781;42.292;23.146;2022-10-16T00:27:12;9.63;;;4.43;;
69569;SDS011;56781;42.292;23.146;2022-10-16T00:29:58;10.05;;;4.45;;
69569;SDS011;56781;42.292;23.146;2022-10-16T00:32:49;11.37;;;4.40;;
69569;SDS011;56781;42.292;23.146;2022-10-16T00:35:33;10.00;;;4.60;;
69569;SDS011;56781;42.292;23.146;2022-10-16T00:38:15;9.10;;;4.63;;
69569;SDS011;56781;42.292;23.146;2022-10-16T00:41:06;10.38;;;4.18;;
69569;SDS011;56781;42.292;23.146;2022-10-16T00:43:55;8.43;;;3.88;;
69569;SDS011;56781;42.292;23.146;2022-10-16T00:46:48;8.77;;;4.30;;
69569;SDS011;56781;42.292;23.146;2022-10-16T00:49:38;9.18;;;4.13;;
69569;SDS011;56781;42.292;23.146;2022-10-16T00:52:23;8.52;;;4.28;;
69569;SDS011;56781;42.292;23.146;2022-10-16T00:55:11;10.93;;;4.70;;
69569;SDS011;56781;42.292;23.146;2022-10-16T00:57:40;10.45;;;4.25;;
69569;SDS011;56781;42.292;23.146;2022-10-16T01:00:21;9.10;;;4.10;;
69569;SDS011;56781;42.292;23.146;2022-10-16T01:03:24;8.95;;;4.43;;
69569;SDS011;56781;42.292;23.146;2022-10-16T01:09:20;8.98;;;4.13;;
69569;SDS011;56781;42.292;23.146;2022-10-16T01:12:12;10.40;;;4.90;;
69569;SDS011;56781;42.292;23.146;2022-10-16T01:15:24;11.53;;;4.87;;
69569;SDS011;56781;42.292;23.146;2022-10-16T01:18:30;11.07;;;4.68;;
69569;SDS011;56781;42.292;23.146;2022-10-16T01:21:44;7.97;;;4.20;;
69569;SDS011;56781;42.292;23.146;2022-10-16T01:24:43;9.80;;;4.30;;
69569;SDS011;56781;42.292;23.146;2022-10-16T01:27:32;10.52;;;4.72;;
69569;SDS011;56781;42.292;23.146;2022-10-16T01:33:17;8.10;;;3.78;;
69569;SDS011;56781;42.292;23.146;2022-10-16T01:36:26;8.90;;;4.10;;
69569;SDS011;56781;42.292;23.146;2022-10-16T01:39:07;13.73;;;5.07;;
69569;SDS011;56781;42.292;23.146;2022-10-16T01:42:11;8.50;;;4.15;;
69569;SDS011;56781;42.292;23.146;2022-10-16T01:44:59;9.20;;;4.03;;
69569;SDS011;56781;42.292;23.146;2022-10-16T01:47:58;7.63;;;3.75;;
69569;SDS011;56781;42.292;23.146;2022-10-16T01:50:59;8.57;;;3.88;;
69569;SDS011;56781;42.292;23.146;2022-10-16T01:53:51;8.05;;;3.72;;
69569;SDS011;56781;42.292;23.146;2022-10-16T01:56:33;9.40;;;4.20;;
69569;SDS011;56781;42.292;23.146;2022-10-16T01:59:33;9.80;;;4.30;;
69569;SDS011;56781;42.292;23.146;2022-10-16T02:02:35;11.80;;;4.75;;
69569;SDS011;56781;42.292;23.146;2022-10-16T02:05:46;11.70;;;4.65;;
69569;SDS011;56781;42.292;23.146;2022-10-16T02:08:47;9.38;;;4.22;;
69569;SDS011;56781;42.292;23.146;2022-10-16T02:11:36;13.52;;;5.00;;
69569;SDS011;56781;42.292;23.146;2022-10-16T02:14:09;10.60;;;4.50;;
69569;SDS011;56781;42.292;23.146;2022-10-16T02:16:45;9.05;;;4.45;;
69569;SDS011;56781;42.292;23.146;2022-10-16T02:19:22;9.65;;;4.47;;
69569;SDS011;56781;42.292;23.146;2022-10-16T02:22:02;8.70;;;4.53;;
69569;SDS011;56781;42.292;23.146;2022-10-16T02:24:59;9.70;;;4.50;;
69569;SDS011;56781;42.292;23.146;2022-10-16T02:28:06;9.70;;;4.40;;
69569;SDS011;56781;42.292;23.146;2022-10-16T02:30:43;8.70;;;4.18;;
69569;SDS011;56781;42.292;23.146;2022-10-16T02:33:25;10.40;;;4.70;;
69569;SDS011;56781;42.292;23.146;2022-10-16T02:36:04;11.77;;;4.97;;
69569;SDS011;56781;42.292;23.146;2022-10-16T02:38:47;9.75;;;4.60;;
69569;SDS011;56781;42.292;23.146;2022-10-16T02:41:14;12.33;;;5.10;;
69569;SDS011;56781;42.292;23.146;2022-10-16T02:43:55;10.13;;;4.72;;
69569;SDS011;56781;42.292;23.146;2022-10-16T02:46:42;14.10;;;4.65;;
69569;SDS011;56781;42.292;23.146;2022-10-16T02:49:15;11.55;;;5.43;;
69569;SDS011;56781;42.292;23.146;2022-10-16T02:52:05;10.00;;;4.80;;
69569;SDS011;56781;42.292;23.146;2022-10-16T02:54:36;10.10;;;4.83;;
69569;SDS011;56781;42.292;23.146;2022-10-16T02:57:27;10.10;;;4.38;;
69569;SDS011;56781;42.292;23.146;2022-10-16T03:00:07;12.45;;;4.97;;
69569;SDS011;56781;42.292;23.146;2022-10-16T03:02:47;10.02;;;4.70;;
69569;SDS011;56781;42.292;23.146;2022-10-16T03:05:36;8.77;;;4.70;;
69569;SDS011;56781;42.292;23.146;2022-10-16T03:08:31;11.27;;;4.47;;
69569;SDS011;56781;42.292;23.146;2022-10-16T03:11:10;11.68;;;5.00;;
69569;SDS011;56781;42.292;23.146;2022-10-16T03:13:58;10.27;;;4.50;;
69569;SDS011;56781;42.292;23.146;2022-10-16T03:16:30;8.68;;;4.47;;
69569;SDS011;56781;42.292;23.146;2022-10-16T03:19:07;9.48;;;4.53;;
69569;SDS011;56781;42.292;23.146;2022-10-16T03:21:51;9.50;;;4.43;;
69569;SDS011;56781;42.292;23.146;2022-10-16T03:24:39;9.00;;;4.30;;
69569;SDS011;56781;42.292;23.146;2022-10-16T03:27:32;10.25;;;4.47;;
69569;SDS011;56781;42.292;23.146;2022-10-16T03:30:30;12.73;;;4.53;;
69569;SDS011;56781;42.292;23.146;2022-10-16T03:33:31;10.57;;;5.28;;
69569;SDS011;56781;42.292;23.146;2022-10-16T03:36:31;10.93;;;5.20;;
69569;SDS011;56781;42.292;23.146;2022-10-16T03:39:25;12.43;;;5.85;;
69569;SDS011;56781;42.292;23.146;2022-10-16T03:41:55;12.45;;;4.85;;
69569;SDS011;56781;42.292;23.146;2022-10-16T03:44:37;11.82;;;5.13;;
69569;SDS011;56781;42.292;23.146;2022-10-16T03:47:12;9.00;;;4.53;;
69569;SDS011;56781;42.292;23.146;2022-10-16T03:50:07;10.67;;;4.20;;
69569;SDS011;56781;42.292;23.146;2022-10-16T03:53:13;10.88;;;3.90;;
69569;SDS011;56781;42.292;23.146;2022-10-16T03:56:12;8.80;;;4.22;;
69569;SDS011;56781;42.292;23.146;2022-10-16T03:58:54;9.48;;;4.07;;
69569;SDS011;56781;42.292;23.146;2022-10-16T04:01:33;8.73;;;3.92;;
69569;SDS011;56781;42.292;23.146;2022-10-16T04:04:13;7.80;;;3.90;;
69569;SDS011;56781;42.292;23.146;2022-10-16T04:06:57;10.50;;;4.45;;
69569;SDS011;56781;42.292;23.146;2022-10-16T04:09:58;11.55;;;4.72;;
69569;SDS011;56781;42.292;23.146;2022-10-16T04:12:46;9.73;;;4.50;;
69569;SDS011;56781;42.292;23.146;2022-10-16T04:15:47;10.55;;;3.95;;
69569;SDS011;56781;42.292;23.146;2022-10-16T04:18:43;11.93;;;4.10;;
69569;SDS011;56781;42.292;23.146;2022-10-16T04:21:54;9.85;;;4.60;;
69569;SDS011;56781;42.292;23.146;2022-10-16T04:24:52;11.70;;;4.68;;
69569;SDS011;56781;42.292;23.146;2022-10-16T04:27:20;8.30;;;3.92;;
69569;SDS011;56781;42.292;23.146;2022-10-16T04:30:29;10.57;;;4.50;;
69569;SDS011;56781;42.292;23.146;2022-10-16T04:40:12;9.15;;;4.45;;
69569;SDS011;56781;42.292;23.146;2022-10-16T04:43:30;10.57;;;5.10;;
69569;SDS011;56781;42.292;23.146;2022-10-16T04:46:01;10.03;;;4.20;;
69569;SDS011;56781;42.292;23.146;2022-10-16T04:48:59;15.75;;;5.45;;
69569;SDS011;56781;42.292;23.146;2022-10-16T04:52:03;12.20;;;5.47;;
69569;SDS011;56781;42.292;23.146;2022-10-16T04:54:41;10.70;;;4.85;;
69569;SDS011;56781;42.292;23.146;2022-10-16T04:57:25;12.30;;;5.47;;
69569;SDS011;56781;42.292;23.146;2022-10-16T04:59:57;12.30;;;5.13;;
69569;SDS011;56781;42.292;23.146;2022-10-16T05:02:49;12.30;;;5.30;;
69569;SDS011;56781;42.292;23.146;2022-10-16T05:05:48;13.65;;;6.13;;
69569;SDS011;56781;42.292;23.146;2022-10-16T05:08:24;12.27;;;5.75;;
69569;SDS011;56781;42.292;23.146;2022-10-16T05:15:00;14.90;;;5.97;;
69569;SDS011;56781;42.292;23.146;2022-10-16T05:18:11;15.50;;;5.50;;
69569;SDS011;56781;42.292;23.146;2022-10-16T05:20:59;13.68;;;5.75;;
69569;SDS011;56781;42.292;23.146;2022-10-16T05:23:54;12.48;;;5.13;;
69569;SDS011;56781;42.292;23.146;2022-10-16T05:30:06;16.00;;;6.90;;
69569;SDS011;56781;42.292;23.146;2022-10-16T05:32:40;17.58;;;6.68;;
69569;SDS011;56781;42.292;23.146;2022-10-16T05:35:21;17.27;;;7.60;;
69569;SDS011;56781;42.292;23.146;2022-10-16T05:38:39;19.55;;;6.60;;
69569;SDS011;56781;42.292;23.146;2022-10-16T05:41:25;13.85;;;5.90;;
69569;SDS011;56781;42.292;23.146;2022-10-16T05:44:05;15.23;;;7.00;;
69569;SDS011;56781;42.292;23.146;2022-10-16T05:47:00;15.65;;;6.18;;
69569;SDS011;56781;42.292;23.146;2022-10-16T05:49:42;13.10;;;6.60;;
69569;SDS011;56781;42.292;23.146;2022-10-16T05:52:40;15.50;;;6.65;;
69569;SDS011;56781;42.292;23.146;2022-10-16T05:55:38;15.30;;;7.10;;
69569;SDS011;56781;42.292;23.146;2022-10-16T05:58:32;15.90;;;6.60;;
69569;SDS011;56781;42.292;23.146;2022-10-16T06:01:15;15.18;;;6.68;;
69569;SDS011;56781;42.292;23.146;2022-10-16T06:03:47;17.75;;;7.30;;
69569;SDS011;56781;42.292;23.146;2022-10-16T06:06:34;16.08;;;6.53;;
69569;SDS011;56781;42.292;23.146;2022-10-16T06:09:36;17.13;;;6.68;;
69569;SDS011;56781;42.292;23.146;2022-10-16T06:12:34;12.17;;;6.33;;
69569;SDS011;56781;42.292;23.146;2022-10-16T06:15:32;14.75;;;6.32;;
69569;SDS011;56781;42.292;23.146;2022-10-16T06:17:59;14.13;;;6.50;;
69569;SDS011;56781;42.292;23.146;2022-10-16T06:20:38;12.63;;;6.35;;
69569;SDS011;56781;42.292;23.146;2022-10-16T06:23:23;13.25;;;6.20;;
69569;SDS011;56781;42.292;23.146;2022-10-16T06:26:10;11.03;;;6.00;;
69569;SDS011;56781;42.292;23.146;2022-10-16T06:28:44;14.63;;;6.68;;
69569;SDS011;56781;42.292;23.146;2022-10-16T06:31:22;13.32;;;6.60;;
69569;SDS011;56781;42.292;23.146;2022-10-16T06:34:00;13.68;;;6.20;;
69569;SDS011;56781;42.292;23.146;2022-10-16T06:36:58;12.70;;;6.30;;
69569;SDS011;56781;42.292;23.146;2022-10-16T06:39:56;12.87;;;5.87;;
69569;SDS011;56781;42.292;23.146;2022-10-16T06:42:54;13.30;;;6.18;;
69569;SDS011;56781;42.292;23.146;2022-10-16T06:45:53;12.18;;;7.00;;
69569;SDS011;56781;42.292;23.146;2022-10-16T06:48:52;12.75;;;6.65;;
69569;SDS011;56781;42.292;23.146;2022-10-16T06:51:26;15.48;;;7.72;;
69569;SDS011;56781;42.292;23.146;2022-10-16T06:54:17;9.97;;;6.10;;
69569;SDS011;56781;42.292;23.146;2022-10-16T06:56:44;10.90;;;5.70;;
69569;SDS011;56781;42.292;23.146;2022-10-16T06:59:21;13.63;;;6.60;;
69569;SDS011;56781;42.292;23.146;2022-10-16T07:02:19;10.38;;;5.47;;
69569;SDS011;56781;42.292;23.146;2022-10-16T07:05:07;14.00;;;6.65;;
69569;SDS011;56781;42.292;23.146;2022-10-16T07:08:05;15.43;;;6.53;;
69569;SDS011;56781;42.292;23.146;2022-10-16T07:10:40;11.35;;;5.55;;
69569;SDS011;56781;42.292;23.146;2022-10-16T07:13:11;10.15;;;5.22;;
69569;SDS011;56781;42.292;23.146;2022-10-16T07:15:40;8.93;;;4.78;;
69569;SDS011;56781;42.292;23.146;2022-10-16T07:18:11;9.82;;;4.90;;
69569;SDS011;56781;42.292;23.146;2022-10-16T07:21:10;9.87;;;5.00;;
69569;SDS011;56781;42.292;23.146;2022-10-16T07:23:57;8.82;;;5.07;;
69569;SDS011;56781;42.292;23.146;2022-10-16T07:26:50;9.80;;;4.53;;
69569;SDS011;56781;42.292;23.146;2022-10-16T07:29:20;8.75;;;5.05;;
69569;SDS011;56781;42.292;23.146;2022-10-16T07:31:55;9.85;;;5.30;;
69569;SDS011;56781;42.292;23.146;2022-10-16T07:34:25;9.57;;;5.43;;
69569;SDS011;56781;42.292;23.146;2022-10-16T07:36:56;11.10;;;5.60;;
69569;SDS011;56781;42.292;23.146;2022-10-16T07:39:24;10.02;;;5.78;;
69569;SDS011;56781;42.292;23.146;2022-10-16T07:41:52;10.35;;;5.43;;
69569;SDS011;56781;42.292;23.146;2022-10-16T07:44:29;9.05;;;5.18;;
69569;SDS011;56781;42.292;23.146;2022-10-16T07:47:01;8.23;;;5.00;;
69569;SDS011;56781;42.292;23.146;2022-10-16T07:49:34;10.93;;;5.38;;
69569;SDS011;56781;42.292;23.146;2022-10-16T07:52:02;9.63;;;5.57;;
69569;SDS011;56781;42.292;23.146;2022-10-16T07:54:31;9.40;;;5.45;;
69569;SDS011;56781;42.292;23.146;2022-10-16T07:56:58;8.32;;;4.60;;
69569;SDS011;56781;42.292;23.146;2022-10-16T07:59:25;10.98;;;5.28;;
69569;SDS011;56781;42.292;23.146;2022-10-16T08:01:52;8.73;;;5.10;;
69569;SDS011;56781;42.292;23.146;2022-10-16T08:04:19;10.00;;;5.38;;
69569;SDS011;56781;42.292;23.146;2022-10-16T08:06:46;9.15;;;4.85;;
69569;SDS011;56781;42.292;23.146;2022-10-16T08:09:14;8.70;;;4.65;;
69569;SDS011;56781;42.292;23.146;2022-10-16T08:11:41;9.77;;;4.70;;
69569;SDS011;56781;42.292;23.146;2022-10-16T08:14:09;11.55;;;4.95;;
69569;SDS011;56781;42.292;23.146;2022-10-16T08:16:37;8.85;;;5.10;;
69569;SDS011;56781;42.292;23.146;2022-10-16T08:19:04;10.45;;;5.75;;
69569;SDS011;56781;42.292;23.146;2022-10-16T08:21:32;7.28;;;4.50;;
69569;SDS011;56781;42.292;23.146;2022-10-16T08:23:59;9.32;;;4.65;;
69569;SDS011;56781;42.292;23.146;2022-10-16T08:26:27;9.02;;;4.60;;
69569;SDS011;56781;42.292;23.146;2022-10-16T08:28:54;8.75;;;4.63;;
69569;SDS011;56781;42.292;23.146;2022-10-16T08:31:22;10.25;;;5.20;;
69569;SDS011;56781;42.292;23.146;2022-10-16T08:33:50;8.82;;;4.47;;
69569;SDS011;56781;42.292;23.146;2022-10-16T08:36:19;9.10;;;4.40;;
69569;SDS011;56781;42.292;23.146;2022-10-16T08:38:49;9.25;;;4.90;;
69569;SDS011;56781;42.292;23.146;2022-10-16T08:41:22;7.88;;;4.65;;
69569;SDS011;56781;42.292;23.146;2022-10-16T08:44:25;8.55;;;5.00;;
69569;SDS011;56781;42.292;23.146;2022-10-16T08:52:25;8.70;;;4.43;;
69569;SDS011;56781;42.292;23.146;2022-10-16T08:54:58;8.65;;;4.18;;
69569;SDS011;56781;42.292;23.146;2022-10-16T08:57:26;8.25;;;4.40;;
69569;SDS011;56781;42.292;23.146;2022-10-16T08:59:59;7.93;;;4.32;;
69569;SDS011;56781;42.292;23.146;2022-10-16T09:02:37;9.52;;;4.70;;
69569;SDS011;56781;42.292;23.146;2022-10-16T09:08:24;8.73;;;4.80;;
69569;SDS011;56781;42.292;23.146;2022-10-16T09:11:08;8.32;;;4.82;;
69569;SDS011;56781;42.292;23.146;2022-10-16T09:13:51;7.82;;;4.30;;
69569;SDS011;56781;42.292;23.146;2022-10-16T09:16:27;9.75;;;5.07;;
69569;SDS011;56781;42.292;23.146;2022-10-16T09:22:10;7.85;;;4.60;;
69569;SDS011;56781;42.292;23.146;2022-10-16T09:24:44;9.52;;;4.95;;
69569;SDS011;56781;42.292;23.146;2022-10-16T09:27:22;10.30;;;5.07;;
69569;SDS011;56781;42.292;23.146;2022-10-16T09:29:55;7.07;;;4.38;;
69569;SDS011;56781;42.292;23.146;2022-10-16T09:32:25;9.43;;;4.57;;
69569;SDS011;56781;42.292;23.146;2022-10-16T09:34:59;9.43;;;4.80;;
69569;SDS011;56781;42.292;23.146;2022-10-16T09:37:27;8.30;;;4.30;;
69569;SDS011;56781;42.292;23.146;2022-10-16T09:39:55;7.25;;;4.22;;
69569;SDS011;56781;42.292;23.146;2022-10-16T09:42:31;7.10;;;4.32;;
69569;SDS011;56781;42.292;23.146;2022-10-16T09:45:22;7.30;;;3.95;;
69569;SDS011;56781;42.292;23.146;2022-10-16T09:47:54;9.52;;;4.85;;
69569;SDS011;56781;42.292;23.146;2022-10-16T09:50:27;10.50;;;4.57;;
69569;SDS011;56781;42.292;23.146;2022-10-16T09:53:08;8.27;;;4.63;;
69569;SDS011;56781;42.292;23.146;2022-10-16T09:55:51;8.02;;;4.55;;
69569;SDS011;56781;42.292;23.146;2022-10-16T09:58:22;7.38;;;4.63;;
69569;SDS011;56781;42.292;23.146;2022-10-16T10:00:52;7.57;;;4.18;;
69569;SDS011;56781;42.292;23.146;2022-10-16T10:03:38;8.35;;;3.97;;
69569;SDS011;56781;42.292;23.146;2022-10-16T10:06:54;8.65;;;4.32;;
69569;SDS011;56781;42.292;23.146;2022-10-16T10:09:29;7.22;;;4.15;;
69569;SDS011;56781;42.292;23.146;2022-10-16T10:12:04;8.45;;;4.30;;
69569;SDS011;56781;42.292;23.146;2022-10-16T10:14:37;9.60;;;4.10;;
69569;SDS011;56781;42.292;23.146;2022-10-16T10:17:10;7.47;;;4.30;;
69569;SDS011;56781;42.292;23.146;2022-10-16T10:36:16;8.10;;;4.50;;
69569;SDS011;56781;42.292;23.146;2022-10-16T10:39:01;7.65;;;4.40;;
69569;SDS011;56781;42.292;23.146;2022-10-16T11:02:55;7.20;;;3.92;;
69569;SDS011;56781;42.292;23.146;2022-10-16T11:06:28;10.90;;;3.67;;
69569;SDS011;56781;42.292;23.146;2022-10-16T11:09:38;7.97;;;4.00;;
69569;SDS011;56781;42.292;23.146;2022-10-16T11:12:44;7.35;;;4.03;;
69569;SDS011;56781;42.292;23.146;2022-10-16T11:15:45;12.02;;;4.47;;
69569;SDS011;56781;42.292;23.146;2022-10-16T11:18:55;7.50;;;3.97;;
69569;SDS011;56781;42.292;23.146;2022-10-16T11:21:39;5.90;;;3.50;;
69569;SDS011;56781;42.292;23.146;2022-10-16T11:28:13;7.13;;;3.80;;
69569;SDS011;56781;42.292;23.146;2022-10-16T11:34:44;7.07;;;3.60;;
69569;SDS011;56781;42.292;23.146;2022-10-16T11:37:30;6.22;;;3.40;;
69569;SDS011;56781;42.292;23.146;2022-10-16T11:40:29;6.45;;;3.42;;
69569;SDS011;56781;42.292;23.146;2022-10-16T11:43:37;5.90;;;2.85;;
69569;SDS011;56781;42.292;23.146;2022-10-16T11:46:13;6.03;;;3.08;;
69569;SDS011;56781;42.292;23.146;2022-10-16T11:49:03;5.20;;;2.65;;
69569;SDS011;56781;42.292;23.146;2022-10-16T11:51:58;8.35;;;3.30;;
69569;SDS011;56781;42.292;23.146;2022-10-16T11:58:06;5.35;;;2.83;;
69569;SDS011;56781;42.292;23.146;2022-10-16T12:04:17;5.60;;;3.20;;
69569;SDS011;56781;42.292;23.146;2022-10-16T12:07:36;6.50;;;2.97;;
69569;SDS011;56781;42.292;23.146;2022-10-16T12:10:48;6.95;;;2.70;;
69569;SDS011;56781;42.292;23.146;2022-10-16T12:13:43;5.35;;;3.00;;
69569;SDS011;56781;42.292;23.146;2022-10-16T12:16:56;4.53;;;2.80;;
69569;SDS011;56781;42.292;23.146;2022-10-16T12:23:20;4.72;;;2.72;;
69569;SDS011;56781;42.292;23.146;2022-10-16T12:29:40;4.78;;;2.83;;
69569;SDS011;56781;42.292;23.146;2022-10-16T12:32:25;6.25;;;3.10;;
69569;SDS011;56781;42.292;23.146;2022-10-16T12:35:20;6.53;;;3.00;;
69569;SDS011;56781;42.292;23.146;2022-10-16T12:42:00;4.53;;;2.22;;
69569;SDS011;56781;42.292;23.146;2022-10-16T12:44:49;7.60;;;3.78;;
69569;SDS011;56781;42.292;23.146;2022-10-16T12:47:22;4.90;;;2.33;;
69569;SDS011;56781;42.292;23.146;2022-10-16T12:50:39;4.07;;;2.30;;
69569;SDS011;56781;42.292;23.146;2022-10-16T12:53:24;5.38;;;2.17;;
69569;SDS011;56781;42.292;23.146;2022-10-16T12:56:22;4.45;;;2.60;;
69569;SDS011;56781;42.292;23.146;2022-10-16T13:02:49;5.25;;;2.10;;
69569;SDS011;56781;42.292;23.146;2022-10-16T13:12:35;4.07;;;2.15;;
69569;SDS011;56781;42.292;23.146;2022-10-16T13:15:12;5.15;;;2.50;;
69569;SDS011;56781;42.292;23.146;2022-10-16T13:18:27;6.57;;;3.88;;
69569;SDS011;56781;42.292;23.146;2022-10-16T13:28:10;6.53;;;2.75;;
69569;SDS011;56781;42.292;23.146;2022-10-16T13:31:20;6.07;;;2.35;;
69569;SDS011;56781;42.292;23.146;2022-10-16T13:34:28;5.72;;;2.22;;
69569;SDS011;56781;42.292;23.146;2022-10-16T13:37:25;6.38;;;1.90;;
69569;SDS011;56781;42.292;23.146;2022-10-16T13:40:31;4.80;;;2.05;;
69569;SDS011;56781;42.292;23.146;2022-10-16T13:43:43;4.30;;;2.25;;
69569;SDS011;56781;42.292;23.146;2022-10-16T13:46:57;6.78;;;2.20;;
69569;SDS011;56781;42.292;23.146;2022-10-16T13:49:46;3.65;;;1.60;;
69569;SDS011;56781;42.292;23.146;2022-10-16T13:52:36;5.28;;;2.25;;
69569;SDS011;56781;42.292;23.146;2022-10-16T13:55:40;4.57;;;2.13;;
69569;SDS011;56781;42.292;23.146;2022-10-16T13:58:41;6.75;;;2.20;;
69569;SDS011;56781;42.292;23.146;2022-10-16T14:01:31;5.15;;;1.98;;
69569;SDS011;56781;42.292;23.146;2022-10-16T14:04:32;5.43;;;2.45;;
69569;SDS011;56781;42.292;23.146;2022-10-16T14:14:10;4.20;;;2.17;;
69569;SDS011;56781;42.292;23.146;2022-10-16T14:17:29;4.57;;;2.30;;
69569;SDS011;56781;42.292;23.146;2022-10-16T14:20:02;5.55;;;2.30;;
69569;SDS011;56781;42.292;23.146;2022-10-16T14:23:03;6.22;;;2.60;;
69569;SDS011;56781;42.292;23.146;2022-10-16T14:26:23;6.47;;;2.58;;
69569;SDS011;56781;42.292;23.146;2022-10-16T14:29:26;5.60;;;2.58;;
69569;SDS011;56781;42.292;23.146;2022-10-16T14:32:25;5.75;;;2.75;;
69569;SDS011;56781;42.292;23.146;2022-10-16T14:35:26;5.05;;;2.55;;
69569;SDS011;56781;42.292;23.146;2022-10-16T14:38:48;5.40;;;3.10;;
69569;SDS011;56781;42.292;23.146;2022-10-16T14:41:58;5.35;;;2.85;;
69569;SDS011;56781;42.292;23.146;2022-10-16T14:44:58;5.20;;;2.45;;
69569;SDS011;56781;42.292;23.146;2022-10-16T14:48:14;5.95;;;2.92;;
69569;SDS011;56781;42.292;23.146;2022-10-16T14:51:20;6.75;;;2.78;;
69569;SDS011;56781;42.292;23.146;2022-10-16T14:54:59;5.13;;;2.85;;
69569;SDS011;56781;42.292;23.146;2022-10-16T14:57:57;8.85;;;3.05;;
69569;SDS011;56781;42.292;23.146;2022-10-16T15:00:48;5.43;;;2.63;;
69569;SDS011;56781;42.292;23.146;2022-10-16T15:03:42;5.03;;;2.90;;
69569;SDS011;56781;42.292;23.146;2022-10-16T15:06:58;6.32;;;3.17;;
69569;SDS011;56781;42.292;23.146;2022-10-16T15:09:52;4.93;;;2.75;;
69569;SDS011;56781;42.292;23.146;2022-10-16T15:12:46;5.90;;;2.70;;
69569;SDS011;56781;42.292;23.146;2022-10-16T15:15:41;5.85;;;3.25;;
69569;SDS011;56781;42.292;23.146;2022-10-16T15:18:42;5.57;;;3.00;;
69569;SDS011;56781;42.292;23.146;2022-10-16T15:21:41;4.32;;;2.67;;
69569;SDS011;56781;42.292;23.146;2022-10-16T15:24:19;6.28;;;2.92;;
69569;SDS011;56781;42.292;23.146;2022-10-16T15:34:10;6.82;;;3.90;;
69569;SDS011;56781;42.292;23.146;2022-10-16T15:37:02;7.57;;;3.90;;
69569;SDS011;56781;42.292;23.146;2022-10-16T15:40:00;7.18;;;3.80;;
69569;SDS011;56781;42.292;23.146;2022-10-16T15:43:06;9.77;;;4.20;;
69569;SDS011;56781;42.292;23.146;2022-10-16T15:46:06;11.80;;;5.13;;
69569;SDS011;56781;42.292;23.146;2022-10-16T15:49:25;10.32;;;5.18;;
69569;SDS011;56781;42.292;23.146;2022-10-16T15:52:22;9.52;;;4.65;;
69569;SDS011;56781;42.292;23.146;2022-10-16T15:54:58;8.60;;;4.63;;
69569;SDS011;56781;42.292;23.146;2022-10-16T15:58:16;8.05;;;4.13;;
69569;SDS011;56781;42.292;23.146;2022-10-16T16:00:59;10.85;;;4.65;;
69569;SDS011;56781;42.292;23.146;2022-10-16T16:03:54;9.38;;;4.80;;
69569;SDS011;56781;42.292;23.146;2022-10-16T16:10:40;27.48;;;11.88;;
69569;SDS011;56781;42.292;23.146;2022-10-16T16:13:17;34.67;;;16.55;;
69569;SDS011;56781;42.292;23.146;2022-10-16T16:16:35;39.08;;;19.13;;
69569;SDS011;56781;42.292;23.146;2022-10-16T16:19:53;30.63;;;15.43;;
69569;SDS011;56781;42.292;23.146;2022-10-16T16:23:09;16.25;;;6.95;;
69569;SDS011;56781;42.292;23.146;2022-10-16T16:30:03;8.68;;;4.50;;
69569;SDS011;56781;42.292;23.146;2022-10-16T16:33:07;7.38;;;4.10;;
69569;SDS011;56781;42.292;23.146;2022-10-16T16:39:24;7.53;;;3.63;;
69569;SDS011;56781;42.292;23.146;2022-10-16T16:46:35;9.13;;;4.10;;
69569;SDS011;56781;42.292;23.146;2022-10-16T16:49:58;7.10;;;3.55;;
69569;SDS011;56781;42.292;23.146;2022-10-16T16:53:12;8.23;;;3.65;;
69569;SDS011;56781;42.292;23.146;2022-10-16T16:56:37;7.30;;;3.90;;
69569;SDS011;56781;42.292;23.146;2022-10-16T17:03:53;6.23;;;3.50;;
69569;SDS011;56781;42.292;23.146;2022-10-16T17:06:54;7.03;;;3.60;;
69569;SDS011;56781;42.292;23.146;2022-10-16T17:13:37;8.77;;;3.70;;
69569;SDS011;56781;42.292;23.146;2022-10-16T17:16:33;7.43;;;3.55;;
69569;SDS011;56781;42.292;23.146;2022-10-16T17:20:03;10.98;;;4.13;;
69569;SDS011;56781;42.292;23.146;2022-10-16T17:23:01;8.23;;;3.67;;
69569;SDS011;56781;42.292;23.146;2022-10-16T17:32:58;9.27;;;3.33;;
69569;SDS011;56781;42.292;23.146;2022-10-16T17:36:12;6.70;;;3.30;;
69569;SDS011;56781;42.292;23.146;2022-10-16T17:49:12;6.72;;;3.13;;
69569;SDS011;56781;42.292;23.146;2022-10-16T17:52:33;7.82;;;2.95;;
69569;SDS011;56781;42.292;23.146;2022-10-16T17:55:39;6.32;;;3.10;;
69569;SDS011;56781;42.292;23.146;2022-10-16T17:58:49;8.15;;;3.60;;
69569;SDS011;56781;42.292;23.146;2022-10-16T18:04:59;9.00;;;3.47;;
69569;SDS011;56781;42.292;23.146;2022-10-16T18:14:46;5.75;;;3.25;;
69569;SDS011;56781;42.292;23.146;2022-10-16T18:21:34;8.65;;;3.53;;
69569;SDS011;56781;42.292;23.146;2022-10-16T18:24:45;27.17;;;8.00;;
69569;SDS011;56781;42.292;23.146;2022-10-16T18:28:08;21.25;;;7.30;;
69569;SDS011;56781;42.292;23.146;2022-10-16T18:31:26;10.18;;;5.53;;
69569;SDS011;56781;42.292;23.146;2022-10-16T18:41:27;10.97;;;5.73;;
69569;SDS011;56781;42.292;23.146;2022-10-16T18:45:06;9.13;;;4.68;;
69569;SDS011;56781;42.292;23.146;2022-10-16T18:48:23;8.43;;;4.30;;
69569;SDS011;56781;42.292;23.146;2022-10-16T18:51:45;12.52;;;5.30;;
69569;SDS011;56781;42.292;23.146;2022-10-16T18:54:57;10.43;;;4.82;;
69569;SDS011;56781;42.292;23.146;2022-10-16T18:58:19;8.90;;;4.20;;
69569;SDS011;56781;42.292;23.146;2022-10-16T19:01:22;9.60;;;4.78;;
69569;SDS011;56781;42.292;23.146;2022-10-16T19:11:51;12.07;;;4.57;;
69569;SDS011;56781;42.292;23.146;2022-10-16T19:25:45;14.20;;;5.72;;
69569;SDS011;56781;42.292;23.146;2022-10-16T19:36:54;8.00;;;4.20;;
69569;SDS011;56781;42.292;23.146;2022-10-16T20:24:49;10.60;;;4.97;;
69569;SDS011;56781;42.292;23.146;2022-10-16T20:28:05;29.47;;;10.07;;
69569;SDS011;56781;42.292;23.146;2022-10-16T20:41:36;10.77;;;5.50;;
69569;SDS011;56781;42.292;23.146;2022-10-16T20:48:23;10.18;;;4.07;;
69569;SDS011;56781;42.292;23.146;2022-10-16T20:50:54;11.88;;;3.97;;
69569;SDS011;56781;42.292;23.146;2022-10-16T20:53:31;8.00;;;3.90;;
69569;SDS011;56781;42.292;23.146;2022-10-16T20:56:04;8.40;;;4.03;;
69569;SDS011;56781;42.292;23.146;2022-10-16T20:58:38;10.90;;;4.70;;
69569;SDS011;56781;42.292;23.146;2022-10-16T21:01:07;11.63;;;4.57;;
69569;SDS011;56781;42.292;23.146;2022-10-16T21:04:00;13.00;;;5.10;;
69569;SDS011;56781;42.292;23.146;2022-10-16T21:06:37;23.30;;;9.55;;
69569;SDS011;56781;42.292;23.146;2022-10-16T21:09:28;21.48;;;8.82;;
69569;SDS011;56781;42.292;23.146;2022-10-16T21:11:55;11.23;;;5.63;;
69569;SDS011;56781;42.292;23.146;2022-10-16T21:14:45;11.10;;;5.40;;